createdAt,value
2019-04-21T00:02:39.007Z,60.32
2019-04-21T00:03:48.370Z,60.52
2019-04-21T00:04:58.099Z,60.42
2019-04-21T00:06:20.189Z,60.61
2019-04-21T00:07:20.601Z,61.04
2019-04-21T00:08:33.415Z,61.18
2019-04-21T00:10:40.289Z,60.91
2019-04-21T00:11:53.778Z,61.49
2019-04-21T00:12:47.252Z,61.74
2019-04-21T00:13:52.741Z,62.01
2019-04-21T00:14:55.490Z,61.42
2019-04-21T00:15:57.323Z,61.18
2019-04-21T00:17:03.586Z,61.10
2019-04-21T00:18:08.586Z,60.91
2019-04-21T00:19:28.201Z,60.90
2019-04-21T00:20:41.423Z,61.08
2019-04-21T00:21:47.063Z,61.54
2019-04-21T00:22:58.710Z,60.95
2019-04-21T00:24:25.186Z,60.85
2019-04-21T00:25:32.051Z,61.13
2019-04-21T00:26:36.505Z,60.34
2019-04-21T00:27:46.485Z,60.71
2019-04-21T00:28:59.405Z,60.60
2019-04-21T00:30:05.523Z,60.49
2019-04-21T00:31:08.120Z,60.70
2019-04-21T00:32:10.214Z,60.39
2019-04-21T00:33:09.054Z,60.25
2019-04-21T00:34:09.021Z,60.32
2019-04-21T00:35:19.147Z,60.30
2019-04-21T00:36:27.374Z,60.01
2019-04-21T00:37:45.124Z,59.59
2019-04-21T00:39:09.941Z,60.44
2019-04-21T00:40:12.488Z,60.53
2019-04-21T00:41:05.535Z,60.84
2019-04-21T00:42:11.304Z,60.79
2019-04-21T00:43:15.049Z,60.21
2019-04-21T00:44:14.002Z,60.68
2019-04-21T00:45:23.372Z,60.49
2019-04-21T00:46:34.806Z,61.22
2019-04-21T00:47:39.273Z,61.27
2019-04-21T00:48:53.586Z,61.16
2019-04-21T00:50:00.814Z,61.42
2019-04-21T00:51:29.091Z,61.18
2019-04-21T00:52:43.302Z,61.42
2019-04-21T00:53:43.832Z,61.57
2019-04-21T00:54:50.157Z,61.55
2019-04-21T00:56:01.485Z,62.15
2019-04-21T00:57:03.668Z,61.90
2019-04-21T00:58:10.604Z,62.13
2019-04-21T00:59:18.246Z,61.79
2019-04-21T01:00:22.184Z,62.07
2019-04-21T01:01:29.404Z,62.59
2019-04-21T01:02:40.249Z,62.48
2019-04-21T01:03:38.448Z,62.26
2019-04-21T01:04:44.737Z,62.42
2019-04-21T01:05:54.760Z,62.83
2019-04-21T01:06:56.064Z,62.55
2019-04-21T01:07:57.823Z,62.75
2019-04-21T01:09:08.223Z,63.14
2019-04-21T01:10:09.407Z,63.20
2019-04-21T01:11:29.784Z,63.51
2019-04-21T01:12:26.866Z,63.44
2019-04-21T01:13:53.355Z,63.85
2019-04-21T01:14:50.266Z,63.27
2019-04-21T01:15:49.090Z,63.68
2019-04-21T01:16:51.452Z,63.50
2019-04-21T01:17:59.384Z,64.13
2019-04-21T01:19:07.493Z,63.85
2019-04-21T01:20:01.162Z,64.40
2019-04-21T01:20:57.018Z,64.36
2019-04-21T01:22:02.862Z,63.41
2019-04-21T01:23:08.498Z,63.34
2019-04-21T01:24:19.688Z,63.58
2019-04-21T01:25:29.311Z,63.72
2019-04-21T01:26:40.801Z,63.92
2019-04-21T01:27:50.728Z,63.92
2019-04-21T01:28:55.662Z,64.41
2019-04-21T01:30:07.823Z,64.13
2019-04-21T01:31:08.756Z,64.48
2019-04-21T01:32:19.095Z,64.52
2019-04-21T01:33:30.839Z,63.90
2019-04-21T01:34:29.077Z,64.09
2019-04-21T01:35:35.442Z,63.93
2019-04-21T01:36:40.959Z,64.45
2019-04-21T01:37:50.893Z,64.41
2019-04-21T01:38:55.105Z,64.68
2019-04-21T01:40:02.272Z,64.65
2019-04-21T01:41:09.477Z,64.29
2019-04-21T01:42:18.844Z,64.69
2019-04-21T01:43:18.636Z,64.56
2019-04-21T01:44:33.637Z,64.52
2019-04-21T01:45:31.840Z,64.74
2019-04-21T01:46:35.420Z,64.95
2019-04-21T01:47:44.641Z,65.21
2019-04-21T01:48:42.888Z,65.43
2019-04-21T01:49:51.034Z,65.63
2019-04-21T01:51:01.535Z,65.48
2019-04-21T01:53:24.873Z,65.58
2019-04-21T01:54:45.906Z,65.11
2019-04-21T01:55:48.525Z,65.54
2019-04-21T01:56:56.940Z,66.04
2019-04-21T01:58:01.434Z,65.84
2019-04-21T01:59:02.686Z,65.96
2019-04-21T02:00:12.570Z,65.81
2019-04-21T02:01:31.703Z,66.09
2019-04-21T02:02:35.961Z,66.04
2019-04-21T02:04:47.387Z,66.45
2019-04-21T02:05:59.707Z,66.21
2019-04-21T02:07:02.858Z,65.85
2019-04-21T02:08:05.449Z,66.05
2019-04-21T02:09:11.100Z,66.38
2019-04-21T02:10:27.057Z,66.68
2019-04-21T02:11:30.004Z,66.44
2019-04-21T02:12:40.549Z,66.38
2019-04-21T02:13:50.204Z,66.78
2019-04-21T02:14:56.381Z,66.52
2019-04-21T02:15:56.369Z,66.65
2019-04-21T02:17:02.150Z,67.41
2019-04-21T02:18:10.511Z,67.30
2019-04-21T02:19:05.774Z,67.43
2019-04-21T02:20:14.717Z,67.67
2019-04-21T02:21:21.799Z,67.72
2019-04-21T02:22:35.355Z,67.68
2019-04-21T02:24:49.671Z,67.15
2019-04-21T02:25:51.714Z,67.16
2019-04-21T02:27:01.713Z,67.27
2019-04-21T02:28:03.736Z,67.77
2019-04-21T02:29:14.317Z,67.68
2019-04-21T02:30:27.595Z,67.84
2019-04-21T02:31:36.223Z,67.04
2019-04-21T02:33:50.294Z,66.53
2019-04-21T02:36:10.211Z,66.86
2019-04-21T02:38:11.970Z,66.75
2019-04-21T02:39:19.229Z,66.90
2019-04-21T02:40:25.551Z,67.05
2019-04-21T02:41:32.075Z,67.49
2019-04-21T02:42:37.912Z,67.43
2019-04-21T02:43:44.914Z,67.55
2019-04-21T02:44:51.795Z,66.82
2019-04-21T02:45:56.130Z,66.76
2019-04-21T02:47:16.890Z,66.64
2019-04-21T02:48:08.858Z,66.52
2019-04-21T02:49:35.015Z,66.76
2019-04-21T02:51:27.663Z,67.67
2019-04-21T02:52:41.433Z,68.29
2019-04-21T02:53:53.611Z,68.15
2019-04-21T02:55:52.585Z,68.07
2019-04-21T02:57:03.288Z,67.59
2019-04-21T02:59:18.778Z,68.08
2019-04-21T03:01:56.237Z,68.24
2019-04-21T03:02:46.998Z,69.03
2019-04-21T03:05:11.628Z,69.27
2019-04-21T03:06:34.233Z,69.24
2019-04-21T03:07:40.732Z,69.05
2019-04-21T03:08:54.370Z,69.01
2019-04-21T03:10:53.298Z,68.24
2019-04-21T03:12:05.542Z,68.60
2019-04-21T03:13:08.916Z,68.46
2019-04-21T03:16:23.310Z,68.84
2019-04-21T03:17:41.752Z,68.55
2019-04-21T03:18:43.610Z,68.58
2019-04-21T03:20:56.839Z,68.73
2019-04-21T03:22:02.978Z,68.94
2019-04-21T03:23:15.346Z,69.18
2019-04-21T03:24:12.868Z,69.46
2019-04-21T03:25:25.240Z,69.79
2019-04-21T03:26:28.428Z,70.26
2019-04-21T03:31:11.609Z,70.19
2019-04-21T03:32:36.727Z,70.06
2019-04-21T03:36:43.706Z,70.29
2019-04-21T03:39:45.510Z,71.35
2019-04-21T03:40:41.253Z,71.56
2019-04-21T03:41:59.815Z,71.42
2019-04-21T03:42:57.172Z,71.41
2019-04-21T03:44:09.847Z,71.08
2019-04-21T03:45:20.960Z,70.77
2019-04-21T03:46:18.328Z,71.12
2019-04-21T03:48:38.546Z,71.05
2019-04-21T03:49:40.358Z,70.87
2019-04-21T03:50:41.084Z,71.03
2019-04-21T03:51:57.217Z,71.13
2019-04-21T03:53:07.020Z,71.38
2019-04-21T03:54:00.097Z,71.58
2019-04-21T03:56:53.421Z,71.34
2019-04-21T03:57:57.129Z,71.65
2019-04-21T03:59:55.727Z,72.27
2019-04-21T04:01:08.028Z,72.24
2019-04-21T04:02:24.421Z,71.97
2019-04-21T04:03:52.108Z,71.99
2019-04-21T04:04:47.536Z,72.23
2019-04-21T04:08:47.679Z,70.55
2019-04-21T04:10:50.083Z,70.39
2019-04-21T04:13:00.829Z,70.27
2019-04-21T04:15:12.054Z,70.18
2019-04-21T04:16:16.975Z,70.36
2019-04-21T04:17:29.607Z,70.61
2019-04-21T04:18:39.233Z,70.94
2019-04-21T04:21:57.158Z,70.67
2019-04-21T04:22:55.278Z,70.72
2019-04-21T04:26:18.432Z,71.04
2019-04-21T04:27:35.200Z,70.58
2019-04-21T04:28:30.660Z,70.55
2019-04-21T04:30:37.930Z,69.48
2019-04-21T04:32:49.806Z,68.65
2019-04-21T04:34:05.032Z,68.36
2019-04-21T04:35:15.968Z,67.65
2019-04-21T04:36:23.985Z,67.39
2019-04-21T04:37:23.992Z,67.83
2019-04-21T04:39:43.094Z,68.01
2019-04-21T04:40:46.938Z,68.22
2019-04-21T04:43:09.830Z,67.59
2019-04-21T04:44:14.283Z,67.39
2019-04-21T04:45:26.561Z,67.13
2019-04-21T04:46:17.827Z,67.36
2019-04-21T04:48:27.916Z,66.84
2019-04-21T04:49:43.513Z,66.28
2019-04-21T04:52:10.143Z,66.08
2019-04-21T04:52:52.118Z,66.09
2019-04-21T04:54:27.782Z,66.06
2019-04-21T04:55:11.305Z,66.20
2019-04-21T04:58:35.527Z,65.99
2019-04-21T05:02:56.549Z,65.77
2019-04-21T05:04:20.477Z,65.32
2019-04-21T05:07:40.125Z,65.73
2019-04-21T05:08:54.379Z,65.16
2019-04-21T05:09:45.042Z,65.29
2019-04-21T05:10:57.454Z,64.95
2019-04-21T05:11:54.127Z,65.08
2019-04-21T05:12:58.720Z,64.92
2019-04-21T05:15:18.707Z,64.22
2019-04-21T05:16:24.386Z,64.00
2019-04-21T05:17:28.824Z,63.25
2019-04-21T05:18:34.851Z,63.31
2019-04-21T05:19:34.154Z,63.34
2019-04-21T05:20:41.868Z,62.68
2019-04-21T05:22:13.132Z,63.06
2019-04-21T05:22:47.310Z,63.09
2019-04-21T05:24:08.020Z,62.47
2019-04-21T05:24:58.016Z,62.15
2019-04-21T05:26:00.078Z,61.89
2019-04-21T05:27:14.109Z,61.81
2019-04-21T05:28:17.611Z,61.56
2019-04-21T05:29:19.419Z,61.59
2019-04-21T05:30:42.218Z,61.77
2019-04-21T05:31:57.059Z,61.34
2019-04-21T05:33:06.385Z,61.34
2019-04-21T05:34:14.963Z,61.68
2019-04-21T05:35:14.357Z,61.49
2019-04-21T05:36:21.779Z,61.12
2019-04-21T05:37:31.696Z,61.28
2019-04-21T05:38:43.357Z,60.80
2019-04-21T05:39:52.273Z,60.86
2019-04-21T05:40:55.184Z,59.81
2019-04-21T05:41:59.172Z,60.22
2019-04-21T05:43:18.670Z,60.13
2019-04-21T05:44:28.024Z,59.18
2019-04-21T05:45:47.635Z,59.26
2019-04-21T05:46:42.489Z,58.27
2019-04-21T05:47:55.823Z,58.65
2019-04-21T05:49:00.382Z,58.34
2019-04-21T05:50:06.491Z,58.69
2019-04-21T05:51:08.983Z,59.52
2019-04-21T05:52:21.362Z,57.57
2019-04-21T05:53:30.601Z,57.41
2019-04-21T05:55:51.752Z,57.64
2019-04-21T05:56:48.674Z,57.51
2019-04-21T05:57:54.322Z,57.75
2019-04-21T05:58:55.433Z,58.13
2019-04-21T06:00:08.869Z,58.00
2019-04-21T06:01:24.105Z,57.17
2019-04-21T06:02:29.268Z,57.25
2019-04-21T06:03:39.757Z,57.45
2019-04-21T06:04:56.674Z,57.00
2019-04-21T06:05:55.596Z,56.96
2019-04-21T06:06:56.818Z,57.19
2019-04-21T06:08:03.077Z,56.10
2019-04-21T06:09:09.329Z,56.71
2019-04-21T06:10:12.360Z,56.18
2019-04-21T06:11:28.432Z,55.90
2019-04-21T06:12:29.796Z,55.90
2019-04-21T06:14:46.441Z,56.19
2019-04-21T06:15:50.271Z,55.77
2019-04-21T06:16:56.965Z,55.31
2019-04-21T06:17:58.173Z,55.25
2019-04-21T06:19:05.240Z,55.25
2019-04-21T06:20:19.100Z,55.17
2019-04-21T06:21:20.470Z,55.06
2019-04-21T06:22:18.854Z,54.90
2019-04-21T06:23:30.522Z,54.54
2019-04-21T06:24:42.234Z,54.76
2019-04-21T06:25:54.969Z,54.42
2019-04-21T06:27:05.413Z,54.52
2019-04-21T06:27:57.497Z,54.47
2019-04-21T06:28:59.680Z,55.19
2019-04-21T06:30:03.283Z,55.10
2019-04-21T06:31:26.719Z,54.54
2019-04-21T06:32:30.449Z,54.44
2019-04-21T06:33:35.642Z,54.28
2019-04-21T06:34:49.609Z,53.88
2019-04-21T06:37:02.322Z,52.07
2019-04-21T06:37:56.759Z,52.33
2019-04-21T06:39:12.269Z,52.36
2019-04-21T06:40:28.345Z,53.36
2019-04-21T06:42:21.184Z,53.01
2019-04-21T06:43:33.372Z,52.58
2019-04-21T06:44:39.839Z,52.80
2019-04-21T06:45:47.054Z,53.83
2019-04-21T06:47:05.995Z,53.12
2019-04-21T06:48:07.565Z,52.99
2019-04-21T06:49:03.088Z,52.91
2019-04-21T06:50:16.158Z,53.18
2019-04-21T06:51:23.708Z,52.91
2019-04-21T06:53:39.732Z,52.65
2019-04-21T06:54:42.250Z,52.36
2019-04-21T06:55:43.524Z,52.42
2019-04-21T06:57:04.873Z,51.89
2019-04-21T06:57:58.230Z,51.28
2019-04-21T06:59:02.084Z,51.43
2019-04-21T07:00:06.430Z,50.63
2019-04-21T07:01:17.198Z,50.61
2019-04-21T07:02:39.912Z,51.72
2019-04-21T07:03:34.863Z,51.81
2019-04-21T07:04:36.707Z,51.92
2019-04-21T07:06:50.117Z,51.08
2019-04-21T07:08:07.619Z,51.44
2019-04-21T07:09:14.003Z,50.75
2019-04-21T07:10:21.002Z,50.59
2019-04-21T07:11:08.443Z,51.07
2019-04-21T07:12:14.203Z,50.58
2019-04-21T07:13:23.588Z,49.34
2019-04-21T07:15:39.853Z,49.83
2019-04-21T07:17:53.640Z,50.03
2019-04-21T07:19:05.920Z,51.18
2019-04-21T07:20:07.404Z,49.33
2019-04-21T07:28:25.425Z,49.45
2019-04-21T07:29:35.832Z,49.03
2019-04-21T07:30:37.108Z,47.72
2019-04-21T07:31:48.198Z,47.07
2019-04-21T07:32:56.267Z,47.29
2019-04-21T07:33:58.714Z,47.61
2019-04-21T07:35:06.744Z,50.12
2019-04-21T07:36:11.474Z,48.97
2019-04-21T07:37:11.648Z,46.77
2019-04-21T07:38:16.733Z,47.77
2019-04-21T07:39:29.987Z,48.05
2019-04-21T07:40:29.247Z,48.50
2019-04-21T07:41:38.522Z,47.75
2019-04-21T07:42:42.664Z,49.74
2019-04-21T07:43:57.558Z,48.64
2019-04-21T07:45:02.389Z,46.44
2019-04-21T07:46:10.213Z,44.01
2019-04-21T07:47:27.120Z,45.21
2019-04-21T07:48:43.517Z,45.04
2019-04-21T07:50:00.636Z,47.28
2019-04-21T07:51:04.654Z,45.80
2019-04-21T07:52:34.670Z,43.69
2019-04-21T07:53:52.586Z,45.52
2019-04-21T07:54:57.462Z,44.71
2019-04-21T07:55:40.216Z,44.40
2019-04-21T07:56:55.957Z,43.74
2019-04-21T07:58:12.905Z,43.53
2019-04-21T07:59:23.971Z,43.70
2019-04-21T08:00:29.267Z,47.75
2019-04-21T08:01:30.732Z,45.27
2019-04-21T08:02:34.144Z,42.31
2019-04-21T08:03:45.501Z,43.04
2019-04-21T08:05:02.699Z,44.16
2019-04-21T08:05:59.188Z,44.39
2019-04-21T08:06:59.692Z,42.57
2019-04-21T08:08:01.456Z,42.48
2019-04-21T08:09:12.095Z,45.29
2019-04-21T08:10:23.250Z,45.29
2019-04-21T08:11:25.363Z,43.81
2019-04-21T08:12:35.156Z,43.99
2019-04-21T08:14:51.433Z,42.76
2019-04-21T08:16:10.895Z,42.99
2019-04-21T08:17:03.080Z,42.52
2019-04-21T08:18:07.214Z,40.89
2019-04-21T08:19:13.374Z,42.65
2019-04-21T08:20:18.787Z,41.20
2019-04-21T08:21:37.086Z,42.33
2019-04-21T08:22:41.336Z,45.42
2019-04-21T08:23:41.500Z,43.17
2019-04-21T08:24:51.888Z,45.49
2019-04-21T08:25:58.949Z,41.95
2019-04-21T08:27:04.908Z,41.28
2019-04-21T08:28:04.991Z,43.91
2019-04-21T08:29:20.381Z,44.50
2019-04-21T08:30:20.493Z,43.64
2019-04-21T08:31:35.556Z,40.64
2019-04-21T08:32:46.550Z,44.83
2019-04-21T08:34:55.844Z,39.71
2019-04-21T08:36:11.315Z,43.18
2019-04-21T08:37:02.696Z,41.83
2019-04-21T08:38:02.122Z,41.98
2019-04-21T08:39:14.986Z,40.57
2019-04-21T08:41:42.641Z,44.08
2019-04-21T08:42:31.578Z,41.14
2019-04-21T08:43:42.621Z,39.87
2019-04-21T08:44:46.707Z,38.68
2019-04-21T08:47:04.208Z,39.09
2019-04-21T08:48:04.669Z,41.17
2019-04-21T08:49:09.063Z,39.55
2019-04-21T08:50:19.632Z,40.75
2019-04-21T08:51:27.565Z,39.53
2019-04-21T08:52:37.125Z,39.49
2019-04-21T08:54:43.906Z,38.45
2019-04-21T08:55:58.706Z,38.61
2019-04-21T08:57:11.593Z,40.15
2019-04-21T08:58:27.319Z,39.96
2019-04-21T09:00:55.140Z,38.65
2019-04-21T09:02:06.286Z,41.30
2019-04-21T09:03:28.579Z,38.66
2019-04-21T09:04:33.698Z,37.59
2019-04-21T09:05:42.584Z,35.59
2019-04-21T09:06:58.738Z,36.79
2019-04-21T09:08:02.164Z,36.94
2019-04-21T09:09:04.661Z,36.75
2019-04-21T09:10:10.751Z,37.96
2019-04-21T09:11:12.726Z,37.15
2019-04-21T09:12:25.748Z,37.58
2019-04-21T09:13:24.947Z,36.00
2019-04-21T09:14:36.622Z,37.05
2019-04-21T09:15:36.667Z,36.34
2019-04-21T09:16:41.210Z,35.56
2019-04-21T09:17:44.594Z,37.56
2019-04-21T09:18:53.664Z,36.07
2019-04-21T09:20:13.862Z,36.61
2019-04-21T09:21:14.932Z,38.21
2019-04-21T09:22:20.798Z,39.22
2019-04-21T09:23:28.782Z,36.64
2019-04-21T09:24:26.658Z,37.15
2019-04-21T09:25:40.611Z,38.07
2019-04-21T09:26:43.209Z,35.08
2019-04-21T09:27:47.108Z,34.91
2019-04-21T09:28:48.130Z,36.04
2019-04-21T09:29:47.929Z,35.91
2019-04-21T09:30:55.914Z,35.21
2019-04-21T09:31:59.145Z,34.44
2019-04-21T09:33:03.657Z,35.54
2019-04-21T09:34:10.113Z,36.07
2019-04-21T09:35:16.828Z,37.04
2019-04-21T09:36:23.355Z,36.10
2019-04-21T09:37:39.724Z,36.88
2019-04-21T09:38:38.081Z,34.46
2019-04-21T09:39:45.195Z,37.51
2019-04-21T09:40:49.724Z,35.94
2019-04-21T09:41:54.521Z,36.17
2019-04-21T09:43:04.184Z,36.28
2019-04-21T09:44:07.837Z,35.24
2019-04-21T09:45:12.510Z,35.73
2019-04-21T09:46:16.894Z,34.95
2019-04-21T09:47:24.739Z,35.01
2019-04-21T09:48:29.795Z,34.67
2019-04-21T09:49:35.542Z,33.59
2019-04-21T09:50:41.431Z,35.96
2019-04-21T09:51:46.112Z,34.76
2019-04-21T09:52:57.897Z,36.48
2019-04-21T09:54:04.323Z,36.06
2019-04-21T09:55:10.027Z,36.73
2019-04-21T09:56:14.819Z,33.37
2019-04-21T09:57:29.998Z,33.48
2019-04-21T09:58:32.409Z,37.15
2019-04-21T09:59:33.561Z,34.69
2019-04-21T10:00:47.663Z,34.16
2019-04-21T10:01:55.949Z,33.79
2019-04-21T10:02:56.695Z,34.86
2019-04-21T10:03:59.758Z,32.53
2019-04-21T10:05:01.828Z,33.52
2019-04-21T10:06:08.719Z,34.69
2019-04-21T10:07:24.330Z,34.44
2019-04-21T10:08:22.976Z,33.59
2019-04-21T10:09:29.050Z,35.02
2019-04-21T10:10:34.199Z,34.46
2019-04-21T10:11:38.681Z,35.30
2019-04-21T10:12:45.396Z,35.52
2019-04-21T10:13:50.727Z,32.58
2019-04-21T10:14:55.441Z,33.13
2019-04-21T10:16:13.389Z,32.66
2019-04-21T10:17:25.697Z,32.97
2019-04-21T10:18:30.172Z,32.78
2019-04-21T10:19:34.648Z,30.89
2019-04-21T10:20:40.563Z,32.57
2019-04-21T10:21:46.581Z,31.75
2019-04-21T10:22:51.563Z,31.80
2019-04-21T10:23:57.685Z,33.23
2019-04-21T10:25:02.979Z,31.72
2019-04-21T10:26:08.526Z,30.83
2019-04-21T10:27:14.651Z,32.05
2019-04-21T10:28:21.163Z,33.55
2019-04-21T10:29:29.377Z,31.25
2019-04-21T10:30:32.962Z,31.06
2019-04-21T10:31:38.739Z,31.86
2019-04-21T10:32:43.190Z,31.59
2019-04-21T10:33:48.432Z,32.68
2019-04-21T10:34:53.102Z,33.24
2019-04-21T10:35:57.568Z,30.98
2019-04-21T10:37:02.833Z,32.37
2019-04-21T10:38:19.904Z,29.62
2019-04-21T10:39:13.794Z,30.62
2019-04-21T10:40:19.144Z,31.82
2019-04-21T10:41:23.602Z,31.58
2019-04-21T10:42:29.099Z,30.57
2019-04-21T10:43:33.661Z,30.84
2019-04-21T10:44:38.857Z,32.28
2019-04-21T10:45:43.355Z,30.08
2019-04-21T10:46:50.279Z,32.19
2019-04-21T10:47:54.847Z,33.72
2019-04-21T10:49:00.970Z,30.32
2019-04-21T10:50:09.124Z,31.27
2019-04-21T10:51:14.882Z,32.20
2019-04-21T10:52:29.711Z,31.70
2019-04-21T10:53:34.833Z,30.99
2019-04-21T10:55:03.361Z,33.35
2019-04-21T10:56:00.494Z,31.33
2019-04-21T10:56:54.500Z,31.19
2019-04-21T10:58:13.997Z,30.07
2019-04-21T10:59:18.903Z,30.27
2019-04-21T11:00:24.022Z,30.23
2019-04-21T11:01:29.418Z,31.19
2019-04-21T11:02:39.109Z,30.00
2019-04-21T11:03:48.957Z,29.58
2019-04-21T11:04:54.512Z,29.68
2019-04-21T11:06:01.117Z,30.12
2019-04-21T11:07:13.432Z,32.38
2019-04-21T11:08:23.049Z,29.33
2019-04-21T11:09:20.086Z,31.57
2019-04-21T11:10:25.767Z,31.96
2019-04-21T11:11:31.984Z,28.56
2019-04-21T11:12:39.293Z,28.88
2019-04-21T11:13:44.206Z,29.04
2019-04-21T11:14:49.474Z,30.37
2019-04-21T11:15:55.197Z,29.07
2019-04-21T11:17:00.515Z,29.53
2019-04-21T11:18:06.114Z,29.11
2019-04-21T11:19:11.646Z,31.09
2019-04-21T11:20:17.606Z,28.97
2019-04-21T11:21:22.937Z,30.33
2019-04-21T11:22:28.520Z,28.31
2019-04-21T11:23:33.220Z,29.11
2019-04-21T11:24:38.957Z,29.87
2019-04-21T11:25:44.023Z,29.84
2019-04-21T11:26:49.675Z,27.38
2019-04-21T11:27:55.365Z,26.00
2019-04-21T11:29:01.118Z,26.03
2019-04-21T11:30:07.734Z,26.94
2019-04-21T11:31:13.201Z,27.95
2019-04-21T11:32:18.981Z,28.73
2019-04-21T11:33:24.968Z,27.04
2019-04-21T11:34:29.467Z,27.69
2019-04-21T11:35:35.229Z,27.24
2019-04-21T11:36:40.447Z,27.51
2019-04-21T11:37:46.188Z,27.60
2019-04-21T11:39:19.811Z,27.11
2019-04-21T11:40:18.023Z,26.13
2019-04-21T11:41:21.627Z,26.11
2019-04-21T11:42:30.811Z,26.02
2019-04-21T11:43:35.261Z,25.39
2019-04-21T11:44:39.871Z,24.00
2019-04-21T11:45:44.506Z,23.82
2019-04-21T11:46:49.030Z,25.87
2019-04-21T11:47:56.348Z,26.01
2019-04-21T11:49:02.210Z,26.92
2019-04-21T11:50:07.423Z,27.36
2019-04-21T11:51:13.134Z,28.53
2019-04-21T11:52:18.752Z,28.19
2019-04-21T11:53:23.396Z,31.40
2019-04-21T11:54:28.788Z,26.97
2019-04-21T11:55:37.089Z,25.81
2019-04-21T11:56:40.706Z,25.80
2019-04-21T11:57:49.472Z,25.70
2019-04-21T11:58:51.910Z,26.02
2019-04-21T11:59:57.592Z,24.27
2019-04-21T12:01:03.965Z,25.04
2019-04-21T12:02:09.723Z,24.80
2019-04-21T12:03:15.710Z,23.34
2019-04-21T12:04:21.282Z,24.69
2019-04-21T12:05:25.747Z,26.50
2019-04-21T12:06:34.900Z,24.78
2019-04-21T12:07:37.601Z,24.70
2019-04-21T12:08:46.395Z,26.29
2019-04-21T12:09:48.581Z,25.92
2019-04-21T12:10:53.486Z,26.64
2019-04-21T12:11:59.189Z,27.56
2019-04-21T12:13:07.021Z,27.37
2019-04-21T12:14:10.027Z,26.83
2019-04-21T12:15:18.755Z,26.27
2019-04-21T12:16:23.486Z,26.69
2019-04-21T12:17:28.020Z,28.14
2019-04-21T12:18:34.026Z,24.43
2019-04-21T12:19:38.818Z,23.99
2019-04-21T12:20:43.306Z,26.37
2019-04-21T12:22:00.391Z,23.43
2019-04-21T12:22:54.953Z,25.09
2019-04-21T12:24:00.591Z,25.60
2019-04-21T12:25:09.297Z,24.62
2019-04-21T12:26:15.947Z,24.34
2019-04-21T12:27:20.478Z,25.82
2019-04-21T12:28:25.908Z,24.28
2019-04-21T12:29:30.656Z,24.13
2019-04-21T12:30:36.153Z,24.08
2019-04-21T12:31:47.977Z,24.74
2019-04-21T12:33:11.959Z,25.04
2019-04-21T12:34:16.479Z,24.23
2019-04-21T12:35:21.855Z,25.39
2019-04-21T12:36:27.564Z,27.15
2019-04-21T12:37:33.029Z,27.47
2019-04-21T12:38:44.661Z,25.69
2019-04-21T12:39:45.049Z,25.61
2019-04-21T12:40:50.755Z,26.62
2019-04-21T12:41:56.385Z,26.17
2019-04-21T12:43:01.085Z,25.64
2019-04-21T12:44:06.922Z,25.45
2019-04-21T12:45:13.132Z,24.91
2019-04-21T12:46:18.094Z,25.26
2019-04-21T12:47:23.781Z,26.25
2019-04-21T12:48:29.699Z,26.12
2019-04-21T12:49:35.884Z,24.89
2019-04-21T12:50:41.722Z,24.14
2019-04-21T12:51:47.937Z,24.63
2019-04-21T12:52:53.659Z,22.48
2019-04-21T12:53:59.476Z,22.30
2019-04-21T12:55:05.730Z,23.07
2019-04-21T12:56:11.599Z,22.98
2019-04-21T12:57:17.133Z,24.59
2019-04-21T12:58:21.650Z,23.96
2019-04-21T12:59:29.191Z,24.84
2019-04-21T13:00:33.410Z,24.59
2019-04-21T13:01:39.030Z,25.11
2019-04-21T13:02:43.693Z,25.68
2019-04-21T13:03:48.109Z,26.77
2019-04-21T13:04:54.223Z,28.94
2019-04-21T13:05:58.781Z,23.75
2019-04-21T13:07:03.714Z,23.78
2019-04-21T13:08:09.228Z,22.83
2019-04-21T13:09:17.934Z,24.18
2019-04-21T13:10:20.353Z,24.50
2019-04-21T13:11:25.541Z,24.43
2019-04-21T13:12:31.090Z,25.88
2019-04-21T13:13:35.734Z,24.02
2019-04-21T13:14:40.235Z,24.63
2019-04-21T13:15:45.340Z,23.76
2019-04-21T13:16:49.817Z,23.60
2019-04-21T13:17:54.361Z,23.49
2019-04-21T13:18:59.571Z,23.00
2019-04-21T13:20:07.413Z,22.01
2019-04-21T13:21:12.064Z,22.32
2019-04-21T13:22:16.618Z,21.32
2019-04-21T13:23:21.079Z,21.63
2019-04-21T13:24:26.153Z,22.70
2019-04-21T13:25:31.760Z,21.17
2019-04-21T13:26:43.963Z,23.65
2019-04-21T13:27:43.070Z,22.94
2019-04-21T13:28:48.030Z,23.02
2019-04-21T13:29:52.510Z,22.66
2019-04-21T13:30:58.232Z,22.21
2019-04-21T13:32:04.751Z,22.62
2019-04-21T13:33:09.233Z,21.27
2019-04-21T13:34:14.081Z,23.10
2019-04-21T13:35:19.162Z,22.61
2019-04-21T13:36:23.686Z,22.51
2019-04-21T13:37:28.160Z,22.09
2019-04-21T13:38:37.692Z,23.64
2019-04-21T13:40:04.303Z,21.51
2019-04-21T13:41:12.250Z,23.48
2019-04-21T13:42:11.062Z,22.70
2019-04-21T13:43:10.153Z,23.00
2019-04-21T13:44:15.758Z,22.74
2019-04-21T13:45:21.888Z,21.51
2019-04-21T13:46:27.178Z,22.03
2019-04-21T13:47:32.485Z,21.04
2019-04-21T13:48:37.105Z,21.00
2019-04-21T13:49:43.261Z,21.29
2019-04-21T13:50:49.002Z,21.37
2019-04-21T13:51:54.194Z,23.65
2019-04-21T13:52:58.853Z,22.00
2019-04-21T13:54:04.036Z,22.29
2019-04-21T13:55:09.646Z,21.35
2019-04-21T13:56:14.377Z,22.60
2019-04-21T13:57:20.778Z,20.44
2019-04-21T13:58:26.339Z,19.98
2019-04-21T13:59:31.933Z,19.85
2019-04-21T14:00:37.642Z,19.88
2019-04-21T14:01:43.555Z,20.24
2019-04-21T14:02:48.971Z,21.91
2019-04-21T14:03:55.559Z,20.96
2019-04-21T14:05:01.193Z,21.37
2019-04-21T14:06:06.641Z,22.43
2019-04-21T14:07:28.063Z,22.88
2019-04-21T14:08:33.494Z,21.87
2019-04-21T14:09:47.666Z,21.41
2019-04-21T14:10:44.553Z,22.30
2019-04-21T14:11:49.415Z,22.00
2019-04-21T14:12:54.643Z,23.16
2019-04-21T14:14:00.508Z,21.34
2019-04-21T14:15:08.295Z,22.68
2019-04-21T14:16:14.034Z,21.61
2019-04-21T14:17:19.169Z,21.73
2019-04-21T14:18:24.637Z,22.65
2019-04-21T14:19:29.155Z,22.08
2019-04-21T14:20:33.610Z,22.66
2019-04-21T14:21:39.128Z,20.46
2019-04-21T14:22:44.270Z,20.90
2019-04-21T14:23:52.085Z,22.83
2019-04-21T14:24:56.283Z,19.69
2019-04-21T14:26:01.754Z,20.46
2019-04-21T14:27:06.187Z,20.94
2019-04-21T14:28:10.710Z,20.63
2019-04-21T14:29:15.534Z,21.55
2019-04-21T14:30:20.679Z,21.31
2019-04-21T14:31:26.339Z,20.55
2019-04-21T14:32:31.839Z,22.14
2019-04-21T14:33:36.312Z,21.85
2019-04-21T14:34:41.987Z,22.18
2019-04-21T14:35:47.116Z,22.68
2019-04-21T14:36:52.946Z,22.26
2019-04-21T14:37:58.439Z,22.52
2019-04-21T14:39:04.727Z,21.58
2019-04-21T14:40:15.597Z,21.20
2019-04-21T14:41:17.870Z,19.85
2019-04-21T14:42:22.319Z,21.32
2019-04-21T14:43:27.728Z,22.42
2019-04-21T14:44:33.220Z,22.19
2019-04-21T14:45:40.702Z,22.55
2019-04-21T14:46:47.101Z,21.60
2019-04-21T14:47:59.086Z,20.20
2019-04-21T14:49:21.579Z,20.87
2019-04-21T14:50:44.211Z,20.53
2019-04-21T14:52:05.291Z,21.90
2019-04-21T14:53:11.897Z,22.57
2019-04-21T14:54:33.323Z,19.22
2019-04-21T14:55:39.411Z,19.78
2019-04-21T14:56:44.969Z,20.11
2019-04-21T14:57:49.472Z,21.14
2019-04-21T14:58:57.187Z,21.65
2019-04-21T15:00:00.749Z,22.62
2019-04-21T15:01:08.178Z,20.62
2019-04-21T15:02:14.070Z,20.27
2019-04-21T15:03:19.495Z,20.04
2019-04-21T15:04:24.178Z,20.92
2019-04-21T15:05:29.374Z,21.89
2019-04-21T15:06:34.118Z,22.23
2019-04-21T15:07:39.283Z,22.18
2019-04-21T15:08:44.990Z,21.88
2019-04-21T15:10:01.469Z,22.24
2019-04-21T15:10:56.794Z,21.76
2019-04-21T15:12:02.379Z,22.04
2019-04-21T15:13:07.719Z,21.81
2019-04-21T15:14:13.709Z,21.34
2019-04-21T15:15:18.418Z,22.37
2019-04-21T15:16:23.198Z,21.76
2019-04-21T15:17:29.345Z,21.75
2019-04-21T15:18:35.011Z,22.55
2019-04-21T15:19:42.843Z,22.69
2019-04-21T15:20:48.537Z,20.97
2019-04-21T15:21:52.421Z,22.80
2019-04-21T15:22:56.919Z,23.96
2019-04-21T15:24:02.455Z,22.36
2019-04-21T15:25:08.021Z,23.15
2019-04-21T15:26:12.536Z,21.46
2019-04-21T15:27:16.991Z,21.97
2019-04-21T15:28:22.418Z,19.61
2019-04-21T15:29:26.892Z,20.76
2019-04-21T15:30:32.435Z,21.95
2019-04-21T15:31:40.386Z,21.78
2019-04-21T15:32:44.410Z,23.10
2019-04-21T15:33:49.578Z,21.73
2019-04-21T15:34:54.122Z,22.35
2019-04-21T15:35:58.574Z,20.82
2019-04-21T15:37:04.189Z,23.32
2019-04-21T15:38:09.881Z,22.62
2019-04-21T15:39:14.334Z,22.73
2019-04-21T15:40:31.424Z,22.29